sensor_id;sensor_type;location;lat;lon;timestamp;P1;durP1;ratioP1;P2;durP2;ratioP2
28577;SDS011;15769;52.248;15.818;2022-08-03T00:02:24;11.53;;;6.77;;
28577;SDS011;15769;52.248;15.818;2022-08-03T00:07:27;9.80;;;6.50;;
28577;SDS011;15769;52.248;15.818;2022-08-03T00:12:38;7.60;;;6.20;;
28577;SDS011;15769;52.248;15.818;2022-08-03T00:17:41;7.45;;;6.38;;
28577;SDS011;15769;52.248;15.818;2022-08-03T00:22:55;9.07;;;6.85;;
28577;SDS011;15769;52.248;15.818;2022-08-03T00:27:58;8.68;;;7.22;;
28577;SDS011;15769;52.248;15.818;2022-08-03T00:33:05;11.70;;;7.73;;
28577;SDS011;15769;52.248;15.818;2022-08-03T00:38:14;12.15;;;8.13;;
28577;SDS011;15769;52.248;15.818;2022-08-03T00:43:23;12.55;;;7.63;;
28577;SDS011;15769;52.248;15.818;2022-08-03T00:48:27;10.70;;;7.53;;
28577;SDS011;15769;52.248;15.818;2022-08-03T00:53:38;9.65;;;7.55;;
28577;SDS011;15769;52.248;15.818;2022-08-03T00:58:40;10.57;;;7.15;;
28577;SDS011;15769;52.248;15.818;2022-08-03T01:03:49;11.60;;;7.50;;
28577;SDS011;15769;52.248;15.818;2022-08-03T01:09:03;13.05;;;7.97;;
28577;SDS011;15769;52.248;15.818;2022-08-03T01:14:38;8.90;;;7.47;;
28577;SDS011;15769;52.248;15.818;2022-08-03T01:19:59;9.75;;;7.05;;
28577;SDS011;15769;52.248;15.818;2022-08-03T01:25:05;10.65;;;7.32;;
28577;SDS011;15769;52.248;15.818;2022-08-03T01:30:15;9.40;;;6.35;;
28577;SDS011;15769;52.248;15.818;2022-08-03T01:35:28;7.75;;;6.80;;
28577;SDS011;15769;52.248;15.818;2022-08-03T01:40:36;8.00;;;6.75;;
28577;SDS011;15769;52.248;15.818;2022-08-03T01:45:41;8.25;;;6.70;;
28577;SDS011;15769;52.248;15.818;2022-08-03T01:50:45;7.38;;;6.68;;
28577;SDS011;15769;52.248;15.818;2022-08-03T01:55:48;8.90;;;6.90;;
28577;SDS011;15769;52.248;15.818;2022-08-03T02:00:53;9.60;;;7.50;;
28577;SDS011;15769;52.248;15.818;2022-08-03T02:06:00;10.32;;;7.72;;
28577;SDS011;15769;52.248;15.818;2022-08-03T02:11:24;12.00;;;8.35;;
28577;SDS011;15769;52.248;15.818;2022-08-03T02:16:26;16.67;;;10.03;;
28577;SDS011;15769;52.248;15.818;2022-08-03T02:21:30;27.95;;;11.93;;
28577;SDS011;15769;52.248;15.818;2022-08-03T02:26:55;19.02;;;11.02;;
28577;SDS011;15769;52.248;15.818;2022-08-03T02:31:59;16.10;;;9.07;;
28577;SDS011;15769;52.248;15.818;2022-08-03T02:37:02;14.82;;;9.60;;
28577;SDS011;15769;52.248;15.818;2022-08-03T02:47:08;14.85;;;9.73;;
28577;SDS011;15769;52.248;15.818;2022-08-03T02:52:15;15.52;;;9.10;;
28577;SDS011;15769;52.248;15.818;2022-08-03T02:57:20;12.77;;;9.35;;
28577;SDS011;15769;52.248;15.818;2022-08-03T03:02:27;13.65;;;9.98;;
28577;SDS011;15769;52.248;15.818;2022-08-03T03:07:31;13.35;;;9.77;;
28577;SDS011;15769;52.248;15.818;2022-08-03T03:12:54;16.77;;;9.60;;
28577;SDS011;15769;52.248;15.818;2022-08-03T03:17:58;17.48;;;10.57;;
28577;SDS011;15769;52.248;15.818;2022-08-03T03:23:01;21.90;;;12.65;;
28577;SDS011;15769;52.248;15.818;2022-08-03T03:28:04;31.00;;;14.63;;
28577;SDS011;15769;52.248;15.818;2022-08-03T03:33:12;25.55;;;14.00;;
28577;SDS011;15769;52.248;15.818;2022-08-03T03:38:17;21.88;;;12.10;;
28577;SDS011;15769;52.248;15.818;2022-08-03T03:48:24;23.02;;;12.80;;
28577;SDS011;15769;52.248;15.818;2022-08-03T03:53:27;22.50;;;12.55;;
28577;SDS011;15769;52.248;15.818;2022-08-03T03:58:30;19.83;;;10.38;;
28577;SDS011;15769;52.248;15.818;2022-08-03T04:03:34;12.95;;;9.10;;
28577;SDS011;15769;52.248;15.818;2022-08-03T04:08:45;15.93;;;9.27;;
28577;SDS011;15769;52.248;15.818;2022-08-03T04:14:23;19.17;;;9.13;;
28577;SDS011;15769;52.248;15.818;2022-08-03T04:19:34;12.88;;;8.93;;
28577;SDS011;15769;52.248;15.818;2022-08-03T04:24:52;10.52;;;7.78;;
28577;SDS011;15769;52.248;15.818;2022-08-03T04:30:31;11.77;;;7.68;;
28577;SDS011;15769;52.248;15.818;2022-08-03T04:35:37;10.40;;;8.45;;
28577;SDS011;15769;52.248;15.818;2022-08-03T04:40:59;11.18;;;8.80;;
28577;SDS011;15769;52.248;15.818;2022-08-03T04:51:05;13.93;;;11.23;;
28577;SDS011;15769;52.248;15.818;2022-08-03T04:56:07;15.10;;;8.33;;
28577;SDS011;15769;52.248;15.818;2022-08-03T05:01:10;11.20;;;7.50;;
28577;SDS011;15769;52.248;15.818;2022-08-03T05:06:13;10.68;;;8.10;;
28577;SDS011;15769;52.248;15.818;2022-08-03T05:11:17;11.60;;;8.23;;
28577;SDS011;15769;52.248;15.818;2022-08-03T05:16:20;12.73;;;7.68;;
28577;SDS011;15769;52.248;15.818;2022-08-03T05:21:23;7.82;;;7.13;;
28577;SDS011;15769;52.248;15.818;2022-08-03T05:26:46;8.63;;;7.43;;
28577;SDS011;15769;52.248;15.818;2022-08-03T05:31:48;10.65;;;7.40;;
28577;SDS011;15769;52.248;15.818;2022-08-03T05:36:51;8.52;;;7.03;;
28577;SDS011;15769;52.248;15.818;2022-08-03T05:41:53;11.60;;;7.97;;
28577;SDS011;15769;52.248;15.818;2022-08-03T05:46:56;8.30;;;7.40;;
28577;SDS011;15769;52.248;15.818;2022-08-03T05:52:00;9.57;;;7.57;;
28577;SDS011;15769;52.248;15.818;2022-08-03T05:57:17;6.93;;;6.05;;
28577;SDS011;15769;52.248;15.818;2022-08-03T06:02:23;8.20;;;6.07;;
28577;SDS011;15769;52.248;15.818;2022-08-03T06:07:25;8.07;;;6.97;;
28577;SDS011;15769;52.248;15.818;2022-08-03T06:12:37;8.02;;;6.68;;
28577;SDS011;15769;52.248;15.818;2022-08-03T06:17:45;10.93;;;7.20;;
28577;SDS011;15769;52.248;15.818;2022-08-03T06:28:08;7.35;;;6.55;;
28577;SDS011;15769;52.248;15.818;2022-08-03T06:33:32;9.45;;;6.20;;
28577;SDS011;15769;52.248;15.818;2022-08-03T06:38:59;9.82;;;6.03;;
28577;SDS011;15769;52.248;15.818;2022-08-03T06:44:02;8.20;;;5.25;;
28577;SDS011;15769;52.248;15.818;2022-08-03T06:49:06;8.52;;;5.05;;
28577;SDS011;15769;52.248;15.818;2022-08-03T06:54:09;7.78;;;5.93;;
28577;SDS011;15769;52.248;15.818;2022-08-03T06:59:17;6.85;;;5.10;;
28577;SDS011;15769;52.248;15.818;2022-08-03T07:04:39;8.02;;;5.10;;
28577;SDS011;15769;52.248;15.818;2022-08-03T07:09:42;6.95;;;5.20;;
28577;SDS011;15769;52.248;15.818;2022-08-03T07:14:59;6.30;;;4.50;;
28577;SDS011;15769;52.248;15.818;2022-08-03T07:20:06;6.72;;;4.13;;
28577;SDS011;15769;52.248;15.818;2022-08-03T07:25:11;4.75;;;4.03;;
28577;SDS011;15769;52.248;15.818;2022-08-03T07:30:19;6.30;;;3.90;;
28577;SDS011;15769;52.248;15.818;2022-08-03T07:35:22;3.55;;;3.25;;
28577;SDS011;15769;52.248;15.818;2022-08-03T07:40:26;3.42;;;3.13;;
28577;SDS011;15769;52.248;15.818;2022-08-03T07:45:36;5.28;;;3.30;;
28577;SDS011;15769;52.248;15.818;2022-08-03T07:50:39;4.45;;;3.28;;
28577;SDS011;15769;52.248;15.818;2022-08-03T07:55:42;3.65;;;3.35;;
28577;SDS011;15769;52.248;15.818;2022-08-03T08:00:45;4.32;;;3.22;;
28577;SDS011;15769;52.248;15.818;2022-08-03T08:05:47;4.80;;;2.60;;
28577;SDS011;15769;52.248;15.818;2022-08-03T08:10:50;3.25;;;2.95;;
28577;SDS011;15769;52.248;15.818;2022-08-03T08:15:59;5.00;;;2.78;;
28577;SDS011;15769;52.248;15.818;2022-08-03T08:21:02;4.05;;;2.72;;
28577;SDS011;15769;52.248;15.818;2022-08-03T08:26:09;4.85;;;2.80;;
28577;SDS011;15769;52.248;15.818;2022-08-03T08:31:11;3.45;;;2.65;;
28577;SDS011;15769;52.248;15.818;2022-08-03T08:36:14;3.10;;;2.20;;
28577;SDS011;15769;52.248;15.818;2022-08-03T08:41:16;2.92;;;2.30;;
28577;SDS011;15769;52.248;15.818;2022-08-03T08:46:21;5.75;;;2.63;;
28577;SDS011;15769;52.248;15.818;2022-08-03T08:51:29;4.97;;;2.35;;
28577;SDS011;15769;52.248;15.818;2022-08-03T08:56:52;2.80;;;2.53;;
28577;SDS011;15769;52.248;15.818;2022-08-03T09:02:03;3.83;;;2.23;;
28577;SDS011;15769;52.248;15.818;2022-08-03T09:07:05;4.03;;;2.42;;
28577;SDS011;15769;52.248;15.818;2022-08-03T09:12:21;4.22;;;2.42;;
28577;SDS011;15769;52.248;15.818;2022-08-03T09:17:45;4.47;;;2.55;;
28577;SDS011;15769;52.248;15.818;2022-08-03T09:28:33;2.13;;;1.80;;
28577;SDS011;15769;52.248;15.818;2022-08-03T09:34:01;2.92;;;2.72;;
28577;SDS011;15769;52.248;15.818;2022-08-03T09:39:15;3.33;;;1.83;;
28577;SDS011;15769;52.248;15.818;2022-08-03T09:49:58;4.90;;;2.33;;
28577;SDS011;15769;52.248;15.818;2022-08-03T09:55:10;6.60;;;2.50;;
28577;SDS011;15769;52.248;15.818;2022-08-03T10:00:43;2.42;;;2.00;;
28577;SDS011;15769;52.248;15.818;2022-08-03T10:05:55;1.95;;;1.75;;
28577;SDS011;15769;52.248;15.818;2022-08-03T10:11:01;2.50;;;1.70;;
28577;SDS011;15769;52.248;15.818;2022-08-03T10:16:13;2.83;;;1.70;;
28577;SDS011;15769;52.248;15.818;2022-08-03T10:21:25;1.98;;;1.80;;
28577;SDS011;15769;52.248;15.818;2022-08-03T10:26:32;1.70;;;1.60;;
28577;SDS011;15769;52.248;15.818;2022-08-03T10:31:39;2.53;;;2.03;;
28577;SDS011;15769;52.248;15.818;2022-08-03T10:37:04;3.10;;;1.77;;
28577;SDS011;15769;52.248;15.818;2022-08-03T10:42:11;2.85;;;1.67;;
28577;SDS011;15769;52.248;15.818;2022-08-03T10:47:15;4.90;;;1.60;;
28577;SDS011;15769;52.248;15.818;2022-08-03T10:52:19;4.05;;;1.90;;
28577;SDS011;15769;52.248;15.818;2022-08-03T11:08:25;1.77;;;1.67;;
28577;SDS011;15769;52.248;15.818;2022-08-03T11:13:31;3.60;;;1.67;;
28577;SDS011;15769;52.248;15.818;2022-08-03T11:18:54;2.25;;;1.80;;
28577;SDS011;15769;52.248;15.818;2022-08-03T11:24:06;4.03;;;1.90;;
28577;SDS011;15769;52.248;15.818;2022-08-03T11:29:30;1.70;;;1.58;;
28577;SDS011;15769;52.248;15.818;2022-08-03T11:34:32;3.35;;;1.73;;
28577;SDS011;15769;52.248;15.818;2022-08-03T11:39:41;2.35;;;1.75;;
28577;SDS011;15769;52.248;15.818;2022-08-03T11:44:46;1.70;;;1.60;;
28577;SDS011;15769;52.248;15.818;2022-08-03T11:49:56;2.72;;;1.52;;
28577;SDS011;15769;52.248;15.818;2022-08-03T11:55:01;3.47;;;1.80;;
28577;SDS011;15769;52.248;15.818;2022-08-03T12:05:42;4.22;;;2.10;;
28577;SDS011;15769;52.248;15.818;2022-08-03T12:10:57;1.60;;;1.50;;
28577;SDS011;15769;52.248;15.818;2022-08-03T12:16:21;1.60;;;1.50;;
28577;SDS011;15769;52.248;15.818;2022-08-03T12:21:27;2.92;;;1.70;;
28577;SDS011;15769;52.248;15.818;2022-08-03T12:26:41;2.80;;;2.50;;
28577;SDS011;15769;52.248;15.818;2022-08-03T12:31:56;3.33;;;1.77;;
28577;SDS011;15769;52.248;15.818;2022-08-03T12:37:03;3.30;;;1.60;;
28577;SDS011;15769;52.248;15.818;2022-08-03T12:42:30;2.95;;;1.80;;
28577;SDS011;15769;52.248;15.818;2022-08-03T12:47:49;3.13;;;1.85;;
28577;SDS011;15769;52.248;15.818;2022-08-03T12:52:54;2.42;;;2.00;;
28577;SDS011;15769;52.248;15.818;2022-08-03T12:57:57;2.33;;;1.90;;
28577;SDS011;15769;52.248;15.818;2022-08-03T13:03:37;1.95;;;1.80;;
28577;SDS011;15769;52.248;15.818;2022-08-03T13:08:46;2.35;;;2.05;;
28577;SDS011;15769;52.248;15.818;2022-08-03T13:13:50;2.10;;;2.00;;
28577;SDS011;15769;52.248;15.818;2022-08-03T13:18:54;2.47;;;1.92;;
28577;SDS011;15769;52.248;15.818;2022-08-03T13:23:57;2.22;;;1.90;;
28577;SDS011;15769;52.248;15.818;2022-08-03T13:29:00;3.75;;;2.00;;
28577;SDS011;15769;52.248;15.818;2022-08-03T13:34:06;2.88;;;2.10;;
28577;SDS011;15769;52.248;15.818;2022-08-03T13:39:09;3.25;;;2.15;;
28577;SDS011;15769;52.248;15.818;2022-08-03T13:44:24;2.00;;;1.90;;
28577;SDS011;15769;52.248;15.818;2022-08-03T13:49:33;2.70;;;2.22;;
28577;SDS011;15769;52.248;15.818;2022-08-03T13:54:35;4.93;;;2.00;;
28577;SDS011;15769;52.248;15.818;2022-08-03T13:59:38;4.93;;;4.40;;
28577;SDS011;15769;52.248;15.818;2022-08-03T14:04:41;3.72;;;2.63;;
28577;SDS011;15769;52.248;15.818;2022-08-03T14:09:44;2.10;;;1.90;;
28577;SDS011;15769;52.248;15.818;2022-08-03T14:14:50;4.22;;;2.70;;
28577;SDS011;15769;52.248;15.818;2022-08-03T14:19:54;2.90;;;2.70;;
28577;SDS011;15769;52.248;15.818;2022-08-03T14:24:58;2.33;;;2.22;;
28577;SDS011;15769;52.248;15.818;2022-08-03T14:30:02;4.70;;;2.65;;
28577;SDS011;15769;52.248;15.818;2022-08-03T14:35:05;2.67;;;2.15;;
28577;SDS011;15769;52.248;15.818;2022-08-03T14:40:08;2.22;;;2.03;;
28577;SDS011;15769;52.248;15.818;2022-08-03T14:45:11;2.83;;;2.42;;
28577;SDS011;15769;52.248;15.818;2022-08-03T14:50:21;2.78;;;2.58;;
28577;SDS011;15769;52.248;15.818;2022-08-03T14:55:41;2.47;;;2.28;;
28577;SDS011;15769;52.248;15.818;2022-08-03T15:00:53;2.22;;;2.08;;
28577;SDS011;15769;52.248;15.818;2022-08-03T15:05:56;2.60;;;2.20;;
28577;SDS011;15769;52.248;15.818;2022-08-03T15:10:58;2.10;;;2.00;;
28577;SDS011;15769;52.248;15.818;2022-08-03T15:16:06;2.40;;;2.30;;
28577;SDS011;15769;52.248;15.818;2022-08-03T15:21:10;2.90;;;2.58;;
28577;SDS011;15769;52.248;15.818;2022-08-03T15:26:32;2.92;;;2.45;;
28577;SDS011;15769;52.248;15.818;2022-08-03T15:31:44;2.33;;;2.13;;
28577;SDS011;15769;52.248;15.818;2022-08-03T15:36:53;3.33;;;3.03;;
28577;SDS011;15769;52.248;15.818;2022-08-03T15:41:58;3.40;;;3.10;;
28577;SDS011;15769;52.248;15.818;2022-08-03T15:47:09;5.47;;;2.95;;
28577;SDS011;15769;52.248;15.818;2022-08-03T15:52:13;3.78;;;2.90;;
28577;SDS011;15769;52.248;15.818;2022-08-03T16:02:29;2.78;;;2.58;;
28577;SDS011;15769;52.248;15.818;2022-08-03T16:07:34;4.05;;;3.30;;
28577;SDS011;15769;52.248;15.818;2022-08-03T16:13:05;3.03;;;2.70;;
28577;SDS011;15769;52.248;15.818;2022-08-03T16:18:08;6.60;;;2.78;;
28577;SDS011;15769;52.248;15.818;2022-08-03T16:23:11;2.33;;;2.13;;
28577;SDS011;15769;52.248;15.818;2022-08-03T16:28:15;2.47;;;2.28;;
28577;SDS011;15769;52.248;15.818;2022-08-03T16:33:18;2.88;;;2.25;;
28577;SDS011;15769;52.248;15.818;2022-08-03T16:38:20;2.58;;;2.38;;
28577;SDS011;15769;52.248;15.818;2022-08-03T16:43:23;2.63;;;2.28;;
28577;SDS011;15769;52.248;15.818;2022-08-03T16:48:26;2.97;;;2.75;;
28577;SDS011;15769;52.248;15.818;2022-08-03T16:53:28;3.80;;;3.40;;
28577;SDS011;15769;52.248;15.818;2022-08-03T16:58:51;2.75;;;2.55;;
28577;SDS011;15769;52.248;15.818;2022-08-03T17:03:54;2.17;;;1.98;;
28577;SDS011;15769;52.248;15.818;2022-08-03T17:09:06;2.13;;;1.85;;
28577;SDS011;15769;52.248;15.818;2022-08-03T17:14:13;4.50;;;2.38;;
28577;SDS011;15769;52.248;15.818;2022-08-03T17:19:17;2.40;;;2.20;;
28577;SDS011;15769;52.248;15.818;2022-08-03T17:24:30;3.03;;;2.20;;
28577;SDS011;15769;52.248;15.818;2022-08-03T17:29:35;2.47;;;2.25;;
28577;SDS011;15769;52.248;15.818;2022-08-03T17:34:47;2.63;;;2.42;;
28577;SDS011;15769;52.248;15.818;2022-08-03T17:39:49;2.58;;;2.20;;
28577;SDS011;15769;52.248;15.818;2022-08-03T17:45:00;2.30;;;2.10;;
28577;SDS011;15769;52.248;15.818;2022-08-03T17:50:07;2.10;;;1.80;;
28577;SDS011;15769;52.248;15.818;2022-08-03T17:55:24;2.25;;;1.95;;
28577;SDS011;15769;52.248;15.818;2022-08-03T18:00:47;2.55;;;2.35;;
28577;SDS011;15769;52.248;15.818;2022-08-03T18:11:32;3.95;;;3.20;;
28577;SDS011;15769;52.248;15.818;2022-08-03T18:16:39;3.95;;;3.20;;
28577;SDS011;15769;52.248;15.818;2022-08-03T18:21:46;3.10;;;2.80;;
28577;SDS011;15769;52.248;15.818;2022-08-03T18:27:05;6.13;;;2.80;;
28577;SDS011;15769;52.248;15.818;2022-08-03T18:32:10;3.22;;;2.70;;
28577;SDS011;15769;52.248;15.818;2022-08-03T18:37:18;4.20;;;2.92;;
28577;SDS011;15769;52.248;15.818;2022-08-03T18:42:26;3.38;;;2.83;;
28577;SDS011;15769;52.248;15.818;2022-08-03T18:47:37;4.97;;;3.22;;
28577;SDS011;15769;52.248;15.818;2022-08-03T18:53:06;4.40;;;3.30;;
28577;SDS011;15769;52.248;15.818;2022-08-03T19:04:07;5.57;;;3.00;;
28577;SDS011;15769;52.248;15.818;2022-08-03T19:09:22;3.73;;;3.23;;
28577;SDS011;15769;52.248;15.818;2022-08-03T19:14:33;3.90;;;2.80;;
28577;SDS011;15769;52.248;15.818;2022-08-03T19:19:54;3.78;;;2.67;;
28577;SDS011;15769;52.248;15.818;2022-08-03T19:24:59;4.57;;;2.80;;
28577;SDS011;15769;52.248;15.818;2022-08-03T19:30:07;7.30;;;2.95;;
28577;SDS011;15769;52.248;15.818;2022-08-03T19:35:41;3.70;;;2.80;;
28577;SDS011;15769;52.248;15.818;2022-08-03T19:41:01;5.13;;;2.80;;
28577;SDS011;15769;52.248;15.818;2022-08-03T19:46:06;3.72;;;2.65;;
28577;SDS011;15769;52.248;15.818;2022-08-03T19:51:14;5.38;;;2.90;;
28577;SDS011;15769;52.248;15.818;2022-08-03T19:56:19;5.20;;;2.95;;
28577;SDS011;15769;52.248;15.818;2022-08-03T20:01:24;3.40;;;3.10;;
28577;SDS011;15769;52.248;15.818;2022-08-03T20:06:29;3.22;;;2.92;;
28577;SDS011;15769;52.248;15.818;2022-08-03T20:11:32;5.85;;;3.30;;
28577;SDS011;15769;52.248;15.818;2022-08-03T20:16:47;4.57;;;3.30;;
28577;SDS011;15769;52.248;15.818;2022-08-03T20:21:50;6.57;;;3.58;;
28577;SDS011;15769;52.248;15.818;2022-08-03T20:26:55;7.10;;;3.53;;
28577;SDS011;15769;52.248;15.818;2022-08-03T20:32:03;6.68;;;3.85;;
28577;SDS011;15769;52.248;15.818;2022-08-03T20:37:07;5.53;;;3.90;;
28577;SDS011;15769;52.248;15.818;2022-08-03T20:42:12;5.80;;;3.80;;
28577;SDS011;15769;52.248;15.818;2022-08-03T20:47:22;4.30;;;3.90;;
28577;SDS011;15769;52.248;15.818;2022-08-03T20:57:27;4.80;;;3.75;;
28577;SDS011;15769;52.248;15.818;2022-08-03T21:02:34;7.35;;;4.05;;
28577;SDS011;15769;52.248;15.818;2022-08-03T21:07:40;5.65;;;3.45;;
28577;SDS011;15769;52.248;15.818;2022-08-03T21:13:15;6.20;;;3.97;;
28577;SDS011;15769;52.248;15.818;2022-08-03T21:18:20;4.80;;;4.22;;
28577;SDS011;15769;52.248;15.818;2022-08-03T21:23:25;5.47;;;3.90;;
28577;SDS011;15769;52.248;15.818;2022-08-03T21:28:49;6.93;;;4.65;;
28577;SDS011;15769;52.248;15.818;2022-08-03T21:33:54;6.20;;;4.50;;
28577;SDS011;15769;52.248;15.818;2022-08-03T21:39:06;6.18;;;4.88;;
28577;SDS011;15769;52.248;15.818;2022-08-03T21:44:09;6.97;;;4.60;;
28577;SDS011;15769;52.248;15.818;2022-08-03T21:49:13;6.93;;;4.85;;
28577;SDS011;15769;52.248;15.818;2022-08-03T21:59:39;9.15;;;5.22;;
28577;SDS011;15769;52.248;15.818;2022-08-03T22:04:49;5.80;;;4.80;;
28577;SDS011;15769;52.248;15.818;2022-08-03T22:09:58;5.55;;;4.70;;
28577;SDS011;15769;52.248;15.818;2022-08-03T22:15:03;7.03;;;4.70;;
28577;SDS011;15769;52.248;15.818;2022-08-03T22:20:09;7.72;;;4.70;;
28577;SDS011;15769;52.248;15.818;2022-08-03T22:25:13;8.68;;;4.70;;
28577;SDS011;15769;52.248;15.818;2022-08-03T22:30:17;6.38;;;4.70;;
28577;SDS011;15769;52.248;15.818;2022-08-03T22:35:20;7.50;;;4.88;;
28577;SDS011;15769;52.248;15.818;2022-08-03T22:40:25;7.43;;;5.25;;
28577;SDS011;15769;52.248;15.818;2022-08-03T22:45:28;5.07;;;4.57;;
28577;SDS011;15769;52.248;15.818;2022-08-03T22:50:51;7.10;;;5.30;;
28577;SDS011;15769;52.248;15.818;2022-08-03T22:55:54;5.30;;;4.80;;
28577;SDS011;15769;52.248;15.818;2022-08-03T23:00:59;5.72;;;5.10;;
28577;SDS011;15769;52.248;15.818;2022-08-03T23:06:03;6.03;;;5.13;;
28577;SDS011;15769;52.248;15.818;2022-08-03T23:11:06;5.65;;;4.90;;
28577;SDS011;15769;52.248;15.818;2022-08-03T23:16:11;7.25;;;5.20;;
28577;SDS011;15769;52.248;15.818;2022-08-03T23:21:14;9.50;;;5.60;;
28577;SDS011;15769;52.248;15.818;2022-08-03T23:26:39;6.85;;;5.50;;
28577;SDS011;15769;52.248;15.818;2022-08-03T23:31:42;5.65;;;4.85;;
28577;SDS011;15769;52.248;15.818;2022-08-03T23:36:48;7.47;;;4.75;;
28577;SDS011;15769;52.248;15.818;2022-08-03T23:41:51;5.85;;;5.03;;
28577;SDS011;15769;52.248;15.818;2022-08-03T23:46:53;5.85;;;5.07;;
28577;SDS011;15769;52.248;15.818;2022-08-03T23:51:58;6.68;;;5.97;;
28577;SDS011;15769;52.248;15.818;2022-08-03T23:57:08;5.75;;;5.03;;
